sensor_id;sensor_type;location;lat;lon;timestamp;pressure;altitude;pressure_sealevel;temperature;humidity
56070;BME280;41944;52.078;-0.058;2023-05-24T00:00:27;102341.31;;;13.53;77.52
56070;BME280;41944;52.078;-0.058;2023-05-24T00:02:54;102337.18;;;13.37;78.30
56070;BME280;41944;52.078;-0.058;2023-05-24T00:05:21;102341.11;;;13.32;78.74
56070;BME280;41944;52.078;-0.058;2023-05-24T00:07:48;102342.71;;;13.39;78.42
56070;BME280;41944;52.078;-0.058;2023-05-24T00:10:16;102339.99;;;13.22;79.46
56070;BME280;41944;52.078;-0.058;2023-05-24T00:12:43;102344.55;;;13.03;80.65
56070;BME280;41944;52.078;-0.058;2023-05-24T00:15:10;102344.77;;;12.90;81.53
56070;BME280;41944;52.078;-0.058;2023-05-24T00:17:37;102347.32;;;12.77;82.00
56070;BME280;41944;52.078;-0.058;2023-05-24T00:20:06;102346.20;;;12.72;82.48
56070;BME280;41944;52.078;-0.058;2023-05-24T00:22:34;102342.53;;;12.63;82.90
56070;BME280;41944;52.078;-0.058;2023-05-24T00:25:01;102340.50;;;12.59;82.97
56070;BME280;41944;52.078;-0.058;2023-05-24T00:27:29;102342.81;;;12.53;83.20
56070;BME280;41944;52.078;-0.058;2023-05-24T00:29:56;102346.34;;;12.54;83.08
56070;BME280;41944;52.078;-0.058;2023-05-24T00:32:23;102345.38;;;12.65;82.41
56070;BME280;41944;52.078;-0.058;2023-05-24T00:34:50;102344.54;;;12.60;82.23
56070;BME280;41944;52.078;-0.058;2023-05-24T00:37:17;102341.44;;;12.49;82.63
56070;BME280;41944;52.078;-0.058;2023-05-24T00:39:44;102338.30;;;12.52;82.72
56070;BME280;41944;52.078;-0.058;2023-05-24T00:42:11;102338.29;;;12.43;83.27
56070;BME280;41944;52.078;-0.058;2023-05-24T00:44:39;102335.49;;;12.34;83.90
56070;BME280;41944;52.078;-0.058;2023-05-24T00:47:05;102335.14;;;12.42;83.50
56070;BME280;41944;52.078;-0.058;2023-05-24T00:49:33;102337.03;;;12.35;83.81
56070;BME280;41944;52.078;-0.058;2023-05-24T00:52:01;102335.62;;;12.29;84.40
56070;BME280;41944;52.078;-0.058;2023-05-24T00:54:28;102336.62;;;12.15;85.15
56070;BME280;41944;52.078;-0.058;2023-05-24T00:56:56;102329.97;;;12.07;85.82
56070;BME280;41944;52.078;-0.058;2023-05-24T00:59:23;102326.61;;;12.04;85.95
56070;BME280;41944;52.078;-0.058;2023-05-24T01:01:50;102329.83;;;12.03;86.00
56070;BME280;41944;52.078;-0.058;2023-05-24T01:04:17;102328.73;;;11.91;86.63
56070;BME280;41944;52.078;-0.058;2023-05-24T01:06:53;102324.95;;;11.92;86.65
56070;BME280;41944;52.078;-0.058;2023-05-24T01:09:30;102323.68;;;11.89;86.89
56070;BME280;41944;52.078;-0.058;2023-05-24T01:12:09;102327.16;;;11.99;86.56
56070;BME280;41944;52.078;-0.058;2023-05-24T01:14:48;102323.16;;;11.86;86.92
56070;BME280;41944;52.078;-0.058;2023-05-24T01:17:21;102327.91;;;11.91;87.14
56070;BME280;41944;52.078;-0.058;2023-05-24T01:19:53;102323.34;;;11.88;87.17
56070;BME280;41944;52.078;-0.058;2023-05-24T01:22:57;102320.33;;;11.87;87.25
56070;BME280;41944;52.078;-0.058;2023-05-24T01:25:45;102322.08;;;11.79;87.61
56070;BME280;41944;52.078;-0.058;2023-05-24T01:28:15;102317.72;;;11.71;87.82
56070;BME280;41944;52.078;-0.058;2023-05-24T01:30:43;102320.39;;;11.64;88.06
56070;BME280;41944;52.078;-0.058;2023-05-24T01:33:10;102322.17;;;11.58;88.33
56070;BME280;41944;52.078;-0.058;2023-05-24T01:35:37;102323.37;;;11.53;88.59
56070;BME280;41944;52.078;-0.058;2023-05-24T01:38:04;102322.99;;;11.50;88.71
56070;BME280;41944;52.078;-0.058;2023-05-24T01:40:31;102321.74;;;11.44;88.95
56070;BME280;41944;52.078;-0.058;2023-05-24T01:43:04;102319.68;;;11.40;88.95
56070;BME280;41944;52.078;-0.058;2023-05-24T01:45:39;102317.35;;;11.38;88.92
56070;BME280;41944;52.078;-0.058;2023-05-24T01:48:15;102315.59;;;11.35;89.13
56070;BME280;41944;52.078;-0.058;2023-05-24T01:50:49;102315.70;;;11.47;88.74
56070;BME280;41944;52.078;-0.058;2023-05-24T01:53:19;102313.68;;;11.42;88.19
56070;BME280;41944;52.078;-0.058;2023-05-24T01:55:48;102311.78;;;11.54;87.69
56070;BME280;41944;52.078;-0.058;2023-05-24T01:58:18;102314.59;;;11.52;87.39
56070;BME280;41944;52.078;-0.058;2023-05-24T02:00:48;102307.34;;;11.56;86.96
56070;BME280;41944;52.078;-0.058;2023-05-24T02:03:15;102312.82;;;11.50;86.79
56070;BME280;41944;52.078;-0.058;2023-05-24T02:05:44;102305.68;;;11.60;86.56
56070;BME280;41944;52.078;-0.058;2023-05-24T02:08:12;102304.44;;;11.37;87.18
56070;BME280;41944;52.078;-0.058;2023-05-24T02:10:40;102305.82;;;11.24;88.04
56070;BME280;41944;52.078;-0.058;2023-05-24T02:13:07;102304.55;;;11.19;88.52
56070;BME280;41944;52.078;-0.058;2023-05-24T02:15:34;102305.11;;;11.16;88.52
56070;BME280;41944;52.078;-0.058;2023-05-24T02:18:02;102304.81;;;11.13;88.56
56070;BME280;41944;52.078;-0.058;2023-05-24T02:20:29;102301.59;;;11.24;88.16
56070;BME280;41944;52.078;-0.058;2023-05-24T02:22:56;102302.44;;;11.23;87.70
56070;BME280;41944;52.078;-0.058;2023-05-24T02:25:23;102304.17;;;11.14;88.10
56070;BME280;41944;52.078;-0.058;2023-05-24T02:27:50;102303.16;;;11.04;88.60
56070;BME280;41944;52.078;-0.058;2023-05-24T02:30:17;102309.06;;;11.13;88.20
56070;BME280;41944;52.078;-0.058;2023-05-24T02:32:44;102319.80;;;11.01;88.43
56070;BME280;41944;52.078;-0.058;2023-05-24T02:35:11;102317.90;;;11.02;88.31
56070;BME280;41944;52.078;-0.058;2023-05-24T02:37:38;102314.07;;;11.27;86.65
56070;BME280;41944;52.078;-0.058;2023-05-24T02:40:06;102321.38;;;11.12;86.66
56070;BME280;41944;52.078;-0.058;2023-05-24T02:42:33;102321.65;;;10.84;88.17
56070;BME280;41944;52.078;-0.058;2023-05-24T02:45:01;102321.13;;;10.73;88.77
56070;BME280;41944;52.078;-0.058;2023-05-24T02:47:28;102325.69;;;10.67;89.37
56070;BME280;41944;52.078;-0.058;2023-05-24T02:49:54;102327.23;;;10.87;88.57
56070;BME280;41944;52.078;-0.058;2023-05-24T02:52:22;102327.06;;;10.81;88.81
56070;BME280;41944;52.078;-0.058;2023-05-24T02:54:49;102323.32;;;10.70;89.18
56070;BME280;41944;52.078;-0.058;2023-05-24T02:57:17;102324.77;;;10.82;88.54
56070;BME280;41944;52.078;-0.058;2023-05-24T02:59:43;102326.35;;;10.87;87.54
56070;BME280;41944;52.078;-0.058;2023-05-24T03:02:10;102331.97;;;10.72;87.57
56070;BME280;41944;52.078;-0.058;2023-05-24T03:04:37;102332.18;;;10.63;88.22
56070;BME280;41944;52.078;-0.058;2023-05-24T03:07:04;102331.48;;;10.73;88.11
56070;BME280;41944;52.078;-0.058;2023-05-24T03:09:31;102327.98;;;10.71;87.72
56070;BME280;41944;52.078;-0.058;2023-05-24T03:11:57;102327.36;;;10.50;88.79
56070;BME280;41944;52.078;-0.058;2023-05-24T03:14:25;102325.19;;;10.37;89.45
56070;BME280;41944;52.078;-0.058;2023-05-24T03:16:51;102324.89;;;10.32;89.79
56070;BME280;41944;52.078;-0.058;2023-05-24T03:19:18;102322.15;;;10.34;89.77
56070;BME280;41944;52.078;-0.058;2023-05-24T03:21:45;102328.94;;;10.30;90.05
56070;BME280;41944;52.078;-0.058;2023-05-24T03:24:12;102330.75;;;10.23;90.52
56070;BME280;41944;52.078;-0.058;2023-05-24T03:26:40;102326.50;;;10.21;90.71
56070;BME280;41944;52.078;-0.058;2023-05-24T03:29:07;102325.12;;;10.25;90.65
56070;BME280;41944;52.078;-0.058;2023-05-24T03:31:34;102322.43;;;10.30;90.41
56070;BME280;41944;52.078;-0.058;2023-05-24T03:34:01;102316.95;;;10.27;90.66
56070;BME280;41944;52.078;-0.058;2023-05-24T03:36:28;102312.15;;;10.38;89.98
56070;BME280;41944;52.078;-0.058;2023-05-24T03:38:55;102311.64;;;10.35;89.97
56070;BME280;41944;52.078;-0.058;2023-05-24T03:41:22;102312.80;;;10.45;89.73
56070;BME280;41944;52.078;-0.058;2023-05-24T03:43:50;102306.53;;;10.40;89.75
56070;BME280;41944;52.078;-0.058;2023-05-24T03:46:17;102303.74;;;10.38;90.13
56070;BME280;41944;52.078;-0.058;2023-05-24T03:48:44;102302.85;;;10.28;90.39
56070;BME280;41944;52.078;-0.058;2023-05-24T03:51:11;102301.31;;;10.24;90.73
56070;BME280;41944;52.078;-0.058;2023-05-24T03:53:38;102294.28;;;10.27;90.72
56070;BME280;41944;52.078;-0.058;2023-05-24T03:56:05;102294.72;;;10.33;90.15
56070;BME280;41944;52.078;-0.058;2023-05-24T03:58:32;102299.61;;;10.41;89.88
56070;BME280;41944;52.078;-0.058;2023-05-24T04:01:00;102298.99;;;10.42;89.31
56070;BME280;41944;52.078;-0.058;2023-05-24T04:03:27;102295.67;;;10.38;89.29
56070;BME280;41944;52.078;-0.058;2023-05-24T04:05:54;102298.33;;;10.27;89.99
56070;BME280;41944;52.078;-0.058;2023-05-24T04:08:21;102297.95;;;10.32;89.94
56070;BME280;41944;52.078;-0.058;2023-05-24T04:10:48;102298.56;;;10.35;90.23
56070;BME280;41944;52.078;-0.058;2023-05-24T04:13:15;102298.92;;;10.35;90.20
56070;BME280;41944;52.078;-0.058;2023-05-24T04:15:42;102300.00;;;10.41;89.73
56070;BME280;41944;52.078;-0.058;2023-05-24T04:18:09;102298.53;;;10.48;89.76
56070;BME280;41944;52.078;-0.058;2023-05-24T04:20:36;102301.93;;;10.53;89.15
56070;BME280;41944;52.078;-0.058;2023-05-24T04:23:03;102306.12;;;10.46;90.01
56070;BME280;41944;52.078;-0.058;2023-05-24T04:25:30;102310.66;;;10.55;89.71
56070;BME280;41944;52.078;-0.058;2023-05-24T04:27:58;102308.96;;;10.51;90.14
56070;BME280;41944;52.078;-0.058;2023-05-24T04:30:25;102305.91;;;10.51;90.28
56070;BME280;41944;52.078;-0.058;2023-05-24T04:32:51;102303.84;;;10.56;90.21
56070;BME280;41944;52.078;-0.058;2023-05-24T04:35:18;102295.27;;;10.65;89.88
56070;BME280;41944;52.078;-0.058;2023-05-24T04:37:45;102294.24;;;10.71;89.83
56070;BME280;41944;52.078;-0.058;2023-05-24T04:40:12;102291.80;;;10.72;89.70
56070;BME280;41944;52.078;-0.058;2023-05-24T04:42:39;102294.98;;;10.75;89.85
56070;BME280;41944;52.078;-0.058;2023-05-24T04:45:07;102296.28;;;10.83;89.52
56070;BME280;41944;52.078;-0.058;2023-05-24T04:47:33;102300.11;;;10.92;89.31
56070;BME280;41944;52.078;-0.058;2023-05-24T04:50:00;102302.92;;;11.03;89.25
56070;BME280;41944;52.078;-0.058;2023-05-24T04:52:27;102306.51;;;11.01;89.15
56070;BME280;41944;52.078;-0.058;2023-05-24T04:54:55;102313.95;;;11.07;89.24
56070;BME280;41944;52.078;-0.058;2023-05-24T04:57:22;102316.72;;;11.30;88.13
56070;BME280;41944;52.078;-0.058;2023-05-24T04:59:49;102317.16;;;11.14;88.94
56070;BME280;41944;52.078;-0.058;2023-05-24T05:02:16;102318.99;;;11.09;89.59
56070;BME280;41944;52.078;-0.058;2023-05-24T05:04:43;102317.07;;;11.12;89.52
56070;BME280;41944;52.078;-0.058;2023-05-24T05:07:10;102312.19;;;11.21;89.28
56070;BME280;41944;52.078;-0.058;2023-05-24T05:09:37;102310.10;;;11.28;88.95
56070;BME280;41944;52.078;-0.058;2023-05-24T05:12:04;102306.68;;;11.37;88.24
56070;BME280;41944;52.078;-0.058;2023-05-24T05:14:31;102310.73;;;11.45;87.64
56070;BME280;41944;52.078;-0.058;2023-05-24T05:16:58;102309.44;;;11.36;88.57
56070;BME280;41944;52.078;-0.058;2023-05-24T05:19:25;102307.83;;;11.43;88.46
56070;BME280;41944;52.078;-0.058;2023-05-24T05:21:52;102308.38;;;11.56;87.60
56070;BME280;41944;52.078;-0.058;2023-05-24T05:24:19;102309.34;;;11.56;87.93
56070;BME280;41944;52.078;-0.058;2023-05-24T05:26:46;102305.71;;;11.70;87.38
56070;BME280;41944;52.078;-0.058;2023-05-24T05:29:13;102312.41;;;11.83;86.64
56070;BME280;41944;52.078;-0.058;2023-05-24T05:31:40;102315.82;;;11.83;86.69
56070;BME280;41944;52.078;-0.058;2023-05-24T05:34:07;102317.90;;;11.88;86.40
56070;BME280;41944;52.078;-0.058;2023-05-24T05:36:34;102321.32;;;11.95;85.89
56070;BME280;41944;52.078;-0.058;2023-05-24T05:39:01;102321.58;;;11.92;86.26
56070;BME280;41944;52.078;-0.058;2023-05-24T05:41:28;102313.63;;;11.99;86.55
56070;BME280;41944;52.078;-0.058;2023-05-24T05:43:56;102314.19;;;12.03;86.32
56070;BME280;41944;52.078;-0.058;2023-05-24T05:46:23;102319.54;;;12.10;85.86
56070;BME280;41944;52.078;-0.058;2023-05-24T05:48:50;102320.77;;;11.98;87.13
56070;BME280;41944;52.078;-0.058;2023-05-24T05:51:16;102325.46;;;12.21;86.10
56070;BME280;41944;52.078;-0.058;2023-05-24T05:53:43;102325.72;;;12.11;87.25
56070;BME280;41944;52.078;-0.058;2023-05-24T05:56:10;102329.62;;;12.16;86.49
56070;BME280;41944;52.078;-0.058;2023-05-24T05:58:38;102333.45;;;12.40;85.75
56070;BME280;41944;52.078;-0.058;2023-05-24T06:01:05;102331.93;;;12.49;85.05
56070;BME280;41944;52.078;-0.058;2023-05-24T06:03:32;102332.61;;;12.49;85.22
56070;BME280;41944;52.078;-0.058;2023-05-24T06:05:59;102331.98;;;12.57;85.32
56070;BME280;41944;52.078;-0.058;2023-05-24T06:08:26;102332.66;;;12.51;86.09
56070;BME280;41944;52.078;-0.058;2023-05-24T06:10:53;102340.27;;;12.80;84.75
56070;BME280;41944;52.078;-0.058;2023-05-24T06:13:20;102342.71;;;12.97;84.07
56070;BME280;41944;52.078;-0.058;2023-05-24T06:15:47;102340.50;;;13.09;83.52
56070;BME280;41944;52.078;-0.058;2023-05-24T06:18:14;102343.01;;;13.15;83.84
56070;BME280;41944;52.078;-0.058;2023-05-24T06:20:41;102341.41;;;13.33;82.75
56070;BME280;41944;52.078;-0.058;2023-05-24T06:23:08;102337.53;;;13.36;82.49
56070;BME280;41944;52.078;-0.058;2023-05-24T06:25:34;102333.13;;;13.42;82.49
56070;BME280;41944;52.078;-0.058;2023-05-24T06:28:01;102331.38;;;13.53;82.22
56070;BME280;41944;52.078;-0.058;2023-05-24T06:30:28;102334.37;;;13.78;81.88
56070;BME280;41944;52.078;-0.058;2023-05-24T06:32:55;102335.71;;;13.67;83.00
56070;BME280;41944;52.078;-0.058;2023-05-24T06:35:22;102337.94;;;13.54;83.37
56070;BME280;41944;52.078;-0.058;2023-05-24T06:37:50;102339.30;;;13.69;83.77
56070;BME280;41944;52.078;-0.058;2023-05-24T06:40:17;102343.21;;;13.86;83.51
56070;BME280;41944;52.078;-0.058;2023-05-24T06:42:44;102343.56;;;14.18;82.13
56070;BME280;41944;52.078;-0.058;2023-05-24T06:45:11;102347.08;;;14.24;82.28
56070;BME280;41944;52.078;-0.058;2023-05-24T06:47:38;102344.58;;;14.27;82.12
56070;BME280;41944;52.078;-0.058;2023-05-24T06:50:06;102344.07;;;14.49;80.14
56070;BME280;41944;52.078;-0.058;2023-05-24T06:52:33;102344.54;;;14.62;79.00
56070;BME280;41944;52.078;-0.058;2023-05-24T06:55:00;102342.48;;;14.86;75.94
56070;BME280;41944;52.078;-0.058;2023-05-24T06:57:27;102340.37;;;14.98;75.12
56070;BME280;41944;52.078;-0.058;2023-05-24T06:59:55;102344.66;;;14.85;75.47
56070;BME280;41944;52.078;-0.058;2023-05-24T07:02:22;102345.70;;;14.98;75.12
56070;BME280;41944;52.078;-0.058;2023-05-24T07:04:50;102346.72;;;14.93;75.61
56070;BME280;41944;52.078;-0.058;2023-05-24T07:07:18;102344.81;;;14.93;76.38
56070;BME280;41944;52.078;-0.058;2023-05-24T07:09:46;102346.50;;;14.98;76.16
56070;BME280;41944;52.078;-0.058;2023-05-24T07:12:13;102348.63;;;15.14;75.46
56070;BME280;41944;52.078;-0.058;2023-05-24T07:14:40;102352.94;;;15.22;76.15
56070;BME280;41944;52.078;-0.058;2023-05-24T07:17:07;102352.24;;;15.38;75.47
56070;BME280;41944;52.078;-0.058;2023-05-24T07:19:34;102356.02;;;15.54;75.12
56070;BME280;41944;52.078;-0.058;2023-05-24T07:22:01;102354.88;;;15.58;73.35
56070;BME280;41944;52.078;-0.058;2023-05-24T07:24:28;102351.83;;;15.60;73.83
56070;BME280;41944;52.078;-0.058;2023-05-24T07:26:55;102353.18;;;15.34;74.60
56070;BME280;41944;52.078;-0.058;2023-05-24T07:29:23;102358.20;;;15.54;73.66
56070;BME280;41944;52.078;-0.058;2023-05-24T07:31:50;102359.51;;;15.61;73.94
56070;BME280;41944;52.078;-0.058;2023-05-24T07:34:18;102355.06;;;15.61;73.89
56070;BME280;41944;52.078;-0.058;2023-05-24T07:36:45;102358.20;;;15.73;73.74
56070;BME280;41944;52.078;-0.058;2023-05-24T07:39:12;102355.41;;;15.56;74.67
56070;BME280;41944;52.078;-0.058;2023-05-24T07:41:39;102357.53;;;15.75;75.46
56070;BME280;41944;52.078;-0.058;2023-05-24T07:44:07;102357.28;;;15.82;73.29
56070;BME280;41944;52.078;-0.058;2023-05-24T07:46:34;102358.17;;;15.99;72.64
56070;BME280;41944;52.078;-0.058;2023-05-24T07:49:01;102357.21;;;16.15;72.93
56070;BME280;41944;52.078;-0.058;2023-05-24T07:51:28;102363.27;;;16.30;71.86
56070;BME280;41944;52.078;-0.058;2023-05-24T07:53:55;102360.50;;;16.34;72.75
56070;BME280;41944;52.078;-0.058;2023-05-24T07:56:22;102359.10;;;16.39;71.77
56070;BME280;41944;52.078;-0.058;2023-05-24T07:58:51;102352.53;;;16.39;70.45
56070;BME280;41944;52.078;-0.058;2023-05-24T08:01:19;102352.47;;;16.44;70.74
56070;BME280;41944;52.078;-0.058;2023-05-24T08:03:45;102355.91;;;16.52;70.85
56070;BME280;41944;52.078;-0.058;2023-05-24T08:06:12;102347.90;;;16.60;70.07
56070;BME280;41944;52.078;-0.058;2023-05-24T08:08:39;102345.72;;;16.73;68.40
56070;BME280;41944;52.078;-0.058;2023-05-24T08:11:06;102346.52;;;16.68;69.28
56070;BME280;41944;52.078;-0.058;2023-05-24T08:13:33;102344.94;;;16.90;68.91
56070;BME280;41944;52.078;-0.058;2023-05-24T08:16:00;102341.04;;;16.92;68.90
56070;BME280;41944;52.078;-0.058;2023-05-24T08:18:27;102344.24;;;17.04;68.50
56070;BME280;41944;52.078;-0.058;2023-05-24T08:20:54;102341.65;;;16.98;67.50
56070;BME280;41944;52.078;-0.058;2023-05-24T08:23:21;102342.19;;;17.06;67.02
56070;BME280;41944;52.078;-0.058;2023-05-24T08:25:49;102337.86;;;17.02;67.20
56070;BME280;41944;52.078;-0.058;2023-05-24T08:28:15;102334.98;;;17.09;67.60
56070;BME280;41944;52.078;-0.058;2023-05-24T08:30:42;102326.98;;;17.25;67.97
56070;BME280;41944;52.078;-0.058;2023-05-24T08:33:09;102324.39;;;17.43;66.75
56070;BME280;41944;52.078;-0.058;2023-05-24T08:35:36;102316.47;;;17.40;66.20
56070;BME280;41944;52.078;-0.058;2023-05-24T08:38:03;102307.68;;;17.32;66.68
56070;BME280;41944;52.078;-0.058;2023-05-24T08:40:30;102306.71;;;17.55;66.92
56070;BME280;41944;52.078;-0.058;2023-05-24T08:42:59;102316.90;;;17.61;66.12
56070;BME280;41944;52.078;-0.058;2023-05-24T08:45:29;102318.97;;;17.72;65.47
56070;BME280;41944;52.078;-0.058;2023-05-24T08:47:57;102310.38;;;17.86;65.82
56070;BME280;41944;52.078;-0.058;2023-05-24T08:50:25;102312.87;;;17.83;63.84
56070;BME280;41944;52.078;-0.058;2023-05-24T08:52:52;102318.61;;;17.72;64.53
56070;BME280;41944;52.078;-0.058;2023-05-24T08:55:20;102316.22;;;17.73;64.94
56070;BME280;41944;52.078;-0.058;2023-05-24T08:57:49;102321.02;;;17.55;65.96
56070;BME280;41944;52.078;-0.058;2023-05-24T09:00:17;102324.87;;;17.60;66.21
56070;BME280;41944;52.078;-0.058;2023-05-24T09:02:45;102330.57;;;17.65;64.62
56070;BME280;41944;52.078;-0.058;2023-05-24T09:05:13;102332.44;;;17.69;65.04
56070;BME280;41944;52.078;-0.058;2023-05-24T09:07:42;102331.98;;;17.68;65.99
56070;BME280;41944;52.078;-0.058;2023-05-24T09:10:09;102334.78;;;17.73;65.30
56070;BME280;41944;52.078;-0.058;2023-05-24T09:12:37;102330.82;;;17.96;65.27
56070;BME280;41944;52.078;-0.058;2023-05-24T09:15:06;102328.38;;;18.08;64.46
56070;BME280;41944;52.078;-0.058;2023-05-24T09:17:33;102326.49;;;18.18;63.41
56070;BME280;41944;52.078;-0.058;2023-05-24T09:20:01;102333.08;;;18.23;63.24
56070;BME280;41944;52.078;-0.058;2023-05-24T09:22:29;102328.26;;;18.12;64.13
56070;BME280;41944;52.078;-0.058;2023-05-24T09:24:57;102326.64;;;18.33;63.13
56070;BME280;41944;52.078;-0.058;2023-05-24T09:27:26;102320.98;;;18.50;62.78
56070;BME280;41944;52.078;-0.058;2023-05-24T09:29:54;102325.87;;;18.63;61.65
56070;BME280;41944;52.078;-0.058;2023-05-24T09:32:22;102322.17;;;18.63;61.73
56070;BME280;41944;52.078;-0.058;2023-05-24T09:34:51;102317.48;;;18.73;61.98
56070;BME280;41944;52.078;-0.058;2023-05-24T09:37:20;102317.74;;;18.95;61.00
56070;BME280;41944;52.078;-0.058;2023-05-24T09:39:48;102320.19;;;19.12;61.39
56070;BME280;41944;52.078;-0.058;2023-05-24T09:42:16;102318.47;;;19.32;60.17
56070;BME280;41944;52.078;-0.058;2023-05-24T09:44:43;102318.21;;;19.27;60.27
56070;BME280;41944;52.078;-0.058;2023-05-24T09:47:10;102319.89;;;19.37;61.31
56070;BME280;41944;52.078;-0.058;2023-05-24T09:49:37;102325.45;;;19.47;59.56
56070;BME280;41944;52.078;-0.058;2023-05-24T09:52:04;102322.71;;;19.49;58.73
56070;BME280;41944;52.078;-0.058;2023-05-24T09:54:31;102319.67;;;19.66;59.77
56070;BME280;41944;52.078;-0.058;2023-05-24T09:56:59;102319.00;;;19.59;59.45
56070;BME280;41944;52.078;-0.058;2023-05-24T09:59:27;102315.84;;;19.53;59.28
56070;BME280;41944;52.078;-0.058;2023-05-24T10:02:06;102315.27;;;19.69;59.32
56070;BME280;41944;52.078;-0.058;2023-05-24T10:04:34;102315.27;;;19.72;58.97
56070;BME280;41944;52.078;-0.058;2023-05-24T10:07:03;102314.42;;;19.59;58.81
56070;BME280;41944;52.078;-0.058;2023-05-24T10:09:31;102311.91;;;19.53;59.27
56070;BME280;41944;52.078;-0.058;2023-05-24T10:12:01;102303.54;;;19.59;58.44
56070;BME280;41944;52.078;-0.058;2023-05-24T10:14:31;102299.10;;;19.77;58.29
56070;BME280;41944;52.078;-0.058;2023-05-24T10:16:58;102297.91;;;19.89;58.89
56070;BME280;41944;52.078;-0.058;2023-05-24T10:19:25;102297.25;;;19.85;59.19
56070;BME280;41944;52.078;-0.058;2023-05-24T10:21:52;102295.18;;;19.82;58.32
56070;BME280;41944;52.078;-0.058;2023-05-24T10:24:23;102302.15;;;19.91;59.45
56070;BME280;41944;52.078;-0.058;2023-05-24T10:26:51;102293.48;;;19.76;57.81
56070;BME280;41944;52.078;-0.058;2023-05-24T10:29:26;102292.82;;;20.00;57.20
56070;BME280;41944;52.078;-0.058;2023-05-24T10:31:57;102293.11;;;20.23;57.77
56070;BME280;41944;52.078;-0.058;2023-05-24T10:34:25;102287.72;;;20.49;55.79
56070;BME280;41944;52.078;-0.058;2023-05-24T10:36:52;102291.24;;;20.43;56.10
56070;BME280;41944;52.078;-0.058;2023-05-24T10:39:21;102291.76;;;20.26;56.73
56070;BME280;41944;52.078;-0.058;2023-05-24T10:41:48;102292.95;;;20.54;56.01
56070;BME280;41944;52.078;-0.058;2023-05-24T10:44:17;102298.51;;;20.48;55.75
56070;BME280;41944;52.078;-0.058;2023-05-24T10:47:19;102297.11;;;20.33;54.99
56070;BME280;41944;52.078;-0.058;2023-05-24T10:49:48;102296.43;;;20.41;56.04
56070;BME280;41944;52.078;-0.058;2023-05-24T10:52:16;102292.01;;;20.39;56.00
56070;BME280;41944;52.078;-0.058;2023-05-24T10:55:01;102289.76;;;20.16;56.05
56070;BME280;41944;52.078;-0.058;2023-05-24T10:57:28;102287.11;;;20.22;57.90
56070;BME280;41944;52.078;-0.058;2023-05-24T10:59:56;102287.79;;;20.41;57.19
56070;BME280;41944;52.078;-0.058;2023-05-24T11:02:26;102292.50;;;20.86;55.01
56070;BME280;41944;52.078;-0.058;2023-05-24T11:04:53;102295.22;;;21.10;53.74
56070;BME280;41944;52.078;-0.058;2023-05-24T11:07:21;102294.45;;;20.67;54.80
56070;BME280;41944;52.078;-0.058;2023-05-24T11:09:48;102291.01;;;20.62;55.04
56070;BME280;41944;52.078;-0.058;2023-05-24T11:12:16;102284.54;;;20.90;54.23
56070;BME280;41944;52.078;-0.058;2023-05-24T11:14:47;102284.60;;;21.07;54.17
56070;BME280;41944;52.078;-0.058;2023-05-24T11:17:15;102285.85;;;20.75;53.19
56070;BME280;41944;52.078;-0.058;2023-05-24T11:19:48;102281.18;;;20.76;53.22
56070;BME280;41944;52.078;-0.058;2023-05-24T11:22:15;102273.77;;;20.89;53.56
56070;BME280;41944;52.078;-0.058;2023-05-24T11:24:44;102269.07;;;21.13;52.99
56070;BME280;41944;52.078;-0.058;2023-05-24T11:27:12;102267.80;;;21.27;52.20
56070;BME280;41944;52.078;-0.058;2023-05-24T11:29:40;102265.95;;;21.20;53.14
56070;BME280;41944;52.078;-0.058;2023-05-24T11:32:07;102270.14;;;21.36;53.77
56070;BME280;41944;52.078;-0.058;2023-05-24T11:34:34;102277.38;;;21.40;51.84
56070;BME280;41944;52.078;-0.058;2023-05-24T11:37:02;102277.68;;;21.51;52.76
56070;BME280;41944;52.078;-0.058;2023-05-24T11:39:30;102276.03;;;21.90;51.90
56070;BME280;41944;52.078;-0.058;2023-05-24T11:41:58;102283.71;;;22.11;51.76
56070;BME280;41944;52.078;-0.058;2023-05-24T11:44:28;102286.31;;;22.06;52.19
56070;BME280;41944;52.078;-0.058;2023-05-24T11:46:58;102285.00;;;21.85;51.64
56070;BME280;41944;52.078;-0.058;2023-05-24T11:49:26;102289.35;;;21.33;52.67
56070;BME280;41944;52.078;-0.058;2023-05-24T11:51:55;102285.97;;;21.53;51.08
56070;BME280;41944;52.078;-0.058;2023-05-24T11:54:23;102297.60;;;21.40;52.22
56070;BME280;41944;52.078;-0.058;2023-05-24T11:56:52;102284.14;;;21.32;51.67
56070;BME280;41944;52.078;-0.058;2023-05-24T11:59:23;102286.27;;;21.58;51.85
56070;BME280;41944;52.078;-0.058;2023-05-24T12:01:56;102288.31;;;21.21;51.77
56070;BME280;41944;52.078;-0.058;2023-05-24T12:04:23;102279.70;;;21.42;52.20
56070;BME280;41944;52.078;-0.058;2023-05-24T12:06:50;102277.75;;;21.60;52.43
56070;BME280;41944;52.078;-0.058;2023-05-24T12:09:18;102279.19;;;21.84;51.65
56070;BME280;41944;52.078;-0.058;2023-05-24T12:11:47;102278.63;;;22.00;51.33
56070;BME280;41944;52.078;-0.058;2023-05-24T12:14:16;102273.94;;;21.92;49.97
56070;BME280;41944;52.078;-0.058;2023-05-24T12:16:45;102270.19;;;21.85;50.70
56070;BME280;41944;52.078;-0.058;2023-05-24T12:19:15;102274.30;;;21.95;50.22
56070;BME280;41944;52.078;-0.058;2023-05-24T12:21:42;102269.12;;;22.08;50.25
56070;BME280;41944;52.078;-0.058;2023-05-24T12:24:10;102268.38;;;22.49;49.16
56070;BME280;41944;52.078;-0.058;2023-05-24T12:26:40;102264.22;;;22.83;49.22
56070;BME280;41944;52.078;-0.058;2023-05-24T12:29:09;102272.86;;;22.81;48.96
56070;BME280;41944;52.078;-0.058;2023-05-24T12:31:36;102271.76;;;22.62;49.49
56070;BME280;41944;52.078;-0.058;2023-05-24T12:34:02;102275.67;;;22.49;50.28
56070;BME280;41944;52.078;-0.058;2023-05-24T12:36:29;102279.27;;;22.31;50.66
56070;BME280;41944;52.078;-0.058;2023-05-24T12:38:56;102281.45;;;22.36;49.22
56070;BME280;41944;52.078;-0.058;2023-05-24T12:41:23;102278.45;;;22.34;49.66
56070;BME280;41944;52.078;-0.058;2023-05-24T12:43:51;102280.13;;;22.72;48.04